sensor_id;sensor_type;location;lat;lon;timestamp;P1;durP1;ratioP1;P2;durP2;ratioP2
28455;SDS011;15682;56.742;38.866;2022-07-11T00:01:36;5.3;;;3.3;;
28455;SDS011;15682;56.742;38.866;2022-07-11T00:03:36;7.1;;;3.6;;
28455;SDS011;15682;56.742;38.866;2022-07-11T00:05:37;8.1;;;3.4;;
28455;SDS011;15682;56.742;38.866;2022-07-11T00:07:37;9.1;;;3.6;;
28455;SDS011;15682;56.742;38.866;2022-07-11T00:09:37;8.9;;;3.2;;
28455;SDS011;15682;56.742;38.866;2022-07-11T00:11:38;5.8;;;2.6;;
28455;SDS011;15682;56.742;38.866;2022-07-11T00:13:38;9.1;;;2.6;;
28455;SDS011;15682;56.742;38.866;2022-07-11T00:15:39;5.9;;;2.4;;
28455;SDS011;15682;56.742;38.866;2022-07-11T00:17:39;7.3;;;2.4;;
28455;SDS011;15682;56.742;38.866;2022-07-11T00:19:39;5.6;;;2.4;;
28455;SDS011;15682;56.742;38.866;2022-07-11T00:21:40;3.9;;;2.4;;
28455;SDS011;15682;56.742;38.866;2022-07-11T00:23:40;5.6;;;2.3;;
28455;SDS011;15682;56.742;38.866;2022-07-11T00:25:40;4.2;;;2.3;;
28455;SDS011;15682;56.742;38.866;2022-07-11T00:27:41;6.9;;;2.5;;
28455;SDS011;15682;56.742;38.866;2022-07-11T00:29:41;7.2;;;2.4;;
28455;SDS011;15682;56.742;38.866;2022-07-11T00:31:42;5.5;;;2.3;;
28455;SDS011;15682;56.742;38.866;2022-07-11T00:33:42;4.6;;;2.2;;
28455;SDS011;15682;56.742;38.866;2022-07-11T00:35:42;7.0;;;2.3;;
28455;SDS011;15682;56.742;38.866;2022-07-11T00:37:43;6.5;;;2.5;;
28455;SDS011;15682;56.742;38.866;2022-07-11T00:39:43;9.7;;;2.4;;
28455;SDS011;15682;56.742;38.866;2022-07-11T00:41:43;5.8;;;2.6;;
28455;SDS011;15682;56.742;38.866;2022-07-11T00:43:49;5.2;;;2.3;;
28455;SDS011;15682;56.742;38.866;2022-07-11T00:45:44;4.8;;;2.3;;
28455;SDS011;15682;56.742;38.866;2022-07-11T00:47:44;7.0;;;2.3;;
28455;SDS011;15682;56.742;38.866;2022-07-11T00:49:45;8.5;;;2.5;;
28455;SDS011;15682;56.742;38.866;2022-07-11T00:51:45;5.0;;;2.2;;
28455;SDS011;15682;56.742;38.866;2022-07-11T00:53:46;5.4;;;2.1;;
28455;SDS011;15682;56.742;38.866;2022-07-11T00:55:46;6.5;;;2.2;;
28455;SDS011;15682;56.742;38.866;2022-07-11T00:57:46;6.7;;;2.2;;
28455;SDS011;15682;56.742;38.866;2022-07-11T00:59:47;5.4;;;2.2;;
28455;SDS011;15682;56.742;38.866;2022-07-11T01:01:47;7.4;;;2.2;;
28455;SDS011;15682;56.742;38.866;2022-07-11T01:03:48;4.5;;;2.0;;
28455;SDS011;15682;56.742;38.866;2022-07-11T01:05:48;9.7;;;2.4;;
28455;SDS011;15682;56.742;38.866;2022-07-11T01:07:48;6.9;;;2.2;;
28455;SDS011;15682;56.742;38.866;2022-07-11T01:09:49;7.6;;;2.2;;
28455;SDS011;15682;56.742;38.866;2022-07-11T01:11:49;6.0;;;2.2;;
28455;SDS011;15682;56.742;38.866;2022-07-11T01:13:49;5.8;;;2.1;;
28455;SDS011;15682;56.742;38.866;2022-07-11T01:15:50;5.4;;;2.2;;
28455;SDS011;15682;56.742;38.866;2022-07-11T01:17:50;6.6;;;2.2;;
28455;SDS011;15682;56.742;38.866;2022-07-11T01:19:50;4.8;;;2.3;;
28455;SDS011;15682;56.742;38.866;2022-07-11T01:21:51;9.4;;;2.4;;
28455;SDS011;15682;56.742;38.866;2022-07-11T01:23:52;3.6;;;2.0;;
28455;SDS011;15682;56.742;38.866;2022-07-11T01:25:52;7.5;;;2.4;;
28455;SDS011;15682;56.742;38.866;2022-07-11T01:27:52;4.7;;;2.3;;
28455;SDS011;15682;56.742;38.866;2022-07-11T01:29:52;7.0;;;2.3;;
28455;SDS011;15682;56.742;38.866;2022-07-11T01:31:53;6.0;;;2.5;;
28455;SDS011;15682;56.742;38.866;2022-07-11T01:33:53;6.6;;;2.5;;
28455;SDS011;15682;56.742;38.866;2022-07-11T01:35:54;5.8;;;2.5;;
28455;SDS011;15682;56.742;38.866;2022-07-11T01:37:54;11.0;;;2.7;;
28455;SDS011;15682;56.742;38.866;2022-07-11T01:39:54;6.2;;;2.2;;
28455;SDS011;15682;56.742;38.866;2022-07-11T01:41:56;7.6;;;2.5;;
28455;SDS011;15682;56.742;38.866;2022-07-11T01:43:55;7.2;;;2.3;;
28455;SDS011;15682;56.742;38.866;2022-07-11T01:45:56;8.3;;;2.4;;
28455;SDS011;15682;56.742;38.866;2022-07-11T01:47:56;7.8;;;2.3;;
28455;SDS011;15682;56.742;38.866;2022-07-11T01:49:56;9.4;;;2.4;;
28455;SDS011;15682;56.742;38.866;2022-07-11T01:51:57;11.7;;;2.8;;
28455;SDS011;15682;56.742;38.866;2022-07-11T01:53:57;6.1;;;2.5;;
28455;SDS011;15682;56.742;38.866;2022-07-11T01:55:57;4.7;;;2.3;;
28455;SDS011;15682;56.742;38.866;2022-07-11T01:57:58;6.0;;;2.7;;
28455;SDS011;15682;56.742;38.866;2022-07-11T01:59:58;5.5;;;2.6;;
28455;SDS011;15682;56.742;38.866;2022-07-11T02:01:59;10.2;;;2.6;;
28455;SDS011;15682;56.742;38.866;2022-07-11T02:03:59;7.5;;;2.6;;
28455;SDS011;15682;56.742;38.866;2022-07-11T02:06:00;6.3;;;2.3;;
28455;SDS011;15682;56.742;38.866;2022-07-11T02:08:00;6.2;;;2.6;;
28455;SDS011;15682;56.742;38.866;2022-07-11T02:10:00;9.6;;;2.9;;
28455;SDS011;15682;56.742;38.866;2022-07-11T02:12:01;7.9;;;2.6;;
28455;SDS011;15682;56.742;38.866;2022-07-11T02:14:01;6.5;;;2.8;;
28455;SDS011;15682;56.742;38.866;2022-07-11T02:16:01;11.1;;;2.5;;
28455;SDS011;15682;56.742;38.866;2022-07-11T02:18:02;12.6;;;2.7;;
28455;SDS011;15682;56.742;38.866;2022-07-11T02:20:02;6.0;;;2.5;;
28455;SDS011;15682;56.742;38.866;2022-07-11T02:22:03;7.8;;;2.6;;
28455;SDS011;15682;56.742;38.866;2022-07-11T02:24:03;12.9;;;2.9;;
28455;SDS011;15682;56.742;38.866;2022-07-11T02:26:03;8.9;;;2.8;;
28455;SDS011;15682;56.742;38.866;2022-07-11T02:28:04;12.1;;;3.2;;
28455;SDS011;15682;56.742;38.866;2022-07-11T02:30:05;8.3;;;2.7;;
28455;SDS011;15682;56.742;38.866;2022-07-11T02:32:05;11.1;;;2.8;;
28455;SDS011;15682;56.742;38.866;2022-07-11T02:34:05;6.9;;;2.7;;
28455;SDS011;15682;56.742;38.866;2022-07-11T02:36:06;8.4;;;3.0;;
28455;SDS011;15682;56.742;38.866;2022-07-11T02:38:06;7.5;;;2.7;;
28455;SDS011;15682;56.742;38.866;2022-07-11T02:40:06;6.6;;;2.7;;
28455;SDS011;15682;56.742;38.866;2022-07-11T02:42:07;9.8;;;2.7;;
28455;SDS011;15682;56.742;38.866;2022-07-11T02:44:07;8.9;;;2.6;;
28455;SDS011;15682;56.742;38.866;2022-07-11T02:46:07;8.8;;;2.7;;
28455;SDS011;15682;56.742;38.866;2022-07-11T02:48:08;7.9;;;2.8;;
28455;SDS011;15682;56.742;38.866;2022-07-11T02:50:09;8.3;;;2.5;;
28455;SDS011;15682;56.742;38.866;2022-07-11T02:52:09;7.6;;;2.8;;
28455;SDS011;15682;56.742;38.866;2022-07-11T02:54:09;6.4;;;2.4;;
28455;SDS011;15682;56.742;38.866;2022-07-11T02:56:09;8.7;;;2.7;;
28455;SDS011;15682;56.742;38.866;2022-07-11T02:58:10;12.2;;;2.6;;
28455;SDS011;15682;56.742;38.866;2022-07-11T03:00:11;10.7;;;2.5;;
28455;SDS011;15682;56.742;38.866;2022-07-11T03:02:11;10.1;;;2.9;;
28455;SDS011;15682;56.742;38.866;2022-07-11T03:04:11;7.6;;;2.8;;
28455;SDS011;15682;56.742;38.866;2022-07-11T03:06:12;12.1;;;3.9;;
28455;SDS011;15682;56.742;38.866;2022-07-11T03:08:12;8.0;;;2.5;;
28455;SDS011;15682;56.742;38.866;2022-07-11T03:10:12;9.2;;;2.5;;
28455;SDS011;15682;56.742;38.866;2022-07-11T03:12:13;9.7;;;2.7;;
28455;SDS011;15682;56.742;38.866;2022-07-11T03:14:13;5.7;;;2.4;;
28455;SDS011;15682;56.742;38.866;2022-07-11T03:16:14;8.8;;;2.9;;
28455;SDS011;15682;56.742;38.866;2022-07-11T03:18:14;9.5;;;2.9;;
28455;SDS011;15682;56.742;38.866;2022-07-11T03:20:14;8.9;;;2.7;;
28455;SDS011;15682;56.742;38.866;2022-07-11T03:22:15;7.4;;;2.6;;
28455;SDS011;15682;56.742;38.866;2022-07-11T03:24:15;5.6;;;2.4;;
28455;SDS011;15682;56.742;38.866;2022-07-11T03:26:16;10.3;;;2.4;;
28455;SDS011;15682;56.742;38.866;2022-07-11T03:28:16;13.5;;;3.1;;
28455;SDS011;15682;56.742;38.866;2022-07-11T03:30:16;7.0;;;2.5;;
28455;SDS011;15682;56.742;38.866;2022-07-11T03:32:17;7.1;;;2.4;;
28455;SDS011;15682;56.742;38.866;2022-07-11T03:34:17;8.5;;;2.6;;
28455;SDS011;15682;56.742;38.866;2022-07-11T03:36:18;9.3;;;2.5;;
28455;SDS011;15682;56.742;38.866;2022-07-11T03:38:19;10.3;;;2.6;;
28455;SDS011;15682;56.742;38.866;2022-07-11T03:40:19;8.4;;;2.9;;
28455;SDS011;15682;56.742;38.866;2022-07-11T03:42:19;7.0;;;3.1;;
28455;SDS011;15682;56.742;38.866;2022-07-11T03:44:19;10.3;;;2.8;;
28455;SDS011;15682;56.742;38.866;2022-07-11T03:46:20;6.3;;;2.4;;
28455;SDS011;15682;56.742;38.866;2022-07-11T03:48:20;8.9;;;2.8;;
28455;SDS011;15682;56.742;38.866;2022-07-11T03:50:21;10.5;;;2.6;;
28455;SDS011;15682;56.742;38.866;2022-07-11T03:52:21;6.2;;;2.6;;
28455;SDS011;15682;56.742;38.866;2022-07-11T03:54:22;10.4;;;2.9;;
28455;SDS011;15682;56.742;38.866;2022-07-11T03:56:22;10.9;;;2.9;;
28455;SDS011;15682;56.742;38.866;2022-07-11T03:58:23;10.0;;;3.1;;
28455;SDS011;15682;56.742;38.866;2022-07-11T04:00:23;13.0;;;2.9;;
28455;SDS011;15682;56.742;38.866;2022-07-11T04:02:23;12.5;;;2.8;;
28455;SDS011;15682;56.742;38.866;2022-07-11T04:04:24;10.2;;;3.1;;
28455;SDS011;15682;56.742;38.866;2022-07-11T04:06:24;7.8;;;2.9;;
28455;SDS011;15682;56.742;38.866;2022-07-11T04:08:25;8.9;;;3.2;;
28455;SDS011;15682;56.742;38.866;2022-07-11T04:10:25;8.3;;;3.1;;
28455;SDS011;15682;56.742;38.866;2022-07-11T04:12:26;11.1;;;3.1;;
28455;SDS011;15682;56.742;38.866;2022-07-11T04:14:26;8.6;;;2.8;;
28455;SDS011;15682;56.742;38.866;2022-07-11T04:16:26;8.8;;;2.8;;
28455;SDS011;15682;56.742;38.866;2022-07-11T04:18:27;7.6;;;3.0;;
28455;SDS011;15682;56.742;38.866;2022-07-11T04:20:27;9.7;;;3.1;;
28455;SDS011;15682;56.742;38.866;2022-07-11T04:22:28;7.5;;;3.0;;
28455;SDS011;15682;56.742;38.866;2022-07-11T04:24:28;6.6;;;2.9;;
28455;SDS011;15682;56.742;38.866;2022-07-11T04:26:28;9.6;;;3.1;;
28455;SDS011;15682;56.742;38.866;2022-07-11T04:28:29;9.7;;;3.0;;
28455;SDS011;15682;56.742;38.866;2022-07-11T04:30:29;7.5;;;3.3;;
28455;SDS011;15682;56.742;38.866;2022-07-11T04:32:30;16.4;;;3.4;;
28455;SDS011;15682;56.742;38.866;2022-07-11T04:34:30;9.4;;;2.9;;
28455;SDS011;15682;56.742;38.866;2022-07-11T04:36:31;11.4;;;4.7;;
28455;SDS011;15682;56.742;38.866;2022-07-11T04:38:31;7.2;;;2.9;;
28455;SDS011;15682;56.742;38.866;2022-07-11T04:40:31;8.3;;;3.1;;
28455;SDS011;15682;56.742;38.866;2022-07-11T04:42:32;9.0;;;3.4;;
28455;SDS011;15682;56.742;38.866;2022-07-11T04:44:32;12.3;;;3.3;;
28455;SDS011;15682;56.742;38.866;2022-07-11T04:46:33;12.8;;;3.1;;
28455;SDS011;15682;56.742;38.866;2022-07-11T04:48:33;9.8;;;3.2;;
28455;SDS011;15682;56.742;38.866;2022-07-11T04:50:34;15.2;;;3.2;;
28455;SDS011;15682;56.742;38.866;2022-07-11T04:52:34;9.5;;;2.8;;
28455;SDS011;15682;56.742;38.866;2022-07-11T04:54:35;7.8;;;2.9;;
28455;SDS011;15682;56.742;38.866;2022-07-11T04:56:36;13.0;;;2.9;;
28455;SDS011;15682;56.742;38.866;2022-07-11T04:58:36;9.4;;;3.1;;
28455;SDS011;15682;56.742;38.866;2022-07-11T05:00:37;11.3;;;2.9;;
28455;SDS011;15682;56.742;38.866;2022-07-11T05:02:37;10.3;;;3.2;;
28455;SDS011;15682;56.742;38.866;2022-07-11T05:04:38;11.4;;;3.3;;
28455;SDS011;15682;56.742;38.866;2022-07-11T05:06:39;9.9;;;3.3;;
28455;SDS011;15682;56.742;38.866;2022-07-11T05:08:39;11.3;;;3.3;;
28455;SDS011;15682;56.742;38.866;2022-07-11T05:10:40;11.0;;;2.8;;
28455;SDS011;15682;56.742;38.866;2022-07-11T05:12:40;10.9;;;3.1;;
28455;SDS011;15682;56.742;38.866;2022-07-11T05:14:41;10.6;;;2.6;;
28455;SDS011;15682;56.742;38.866;2022-07-11T05:16:41;4.8;;;2.5;;
28455;SDS011;15682;56.742;38.866;2022-07-11T05:18:42;11.7;;;2.7;;
28455;SDS011;15682;56.742;38.866;2022-07-11T05:20:43;11.7;;;3.1;;
28455;SDS011;15682;56.742;38.866;2022-07-11T05:22:43;13.2;;;3.0;;
28455;SDS011;15682;56.742;38.866;2022-07-11T05:24:44;11.1;;;3.2;;
28455;SDS011;15682;56.742;38.866;2022-07-11T05:26:44;10.3;;;3.0;;
28455;SDS011;15682;56.742;38.866;2022-07-11T05:28:45;11.2;;;3.3;;
28455;SDS011;15682;56.742;38.866;2022-07-11T05:30:46;16.1;;;3.3;;
28455;SDS011;15682;56.742;38.866;2022-07-11T05:32:46;14.7;;;3.3;;
28455;SDS011;15682;56.742;38.866;2022-07-11T05:34:47;23.0;;;3.5;;
28455;SDS011;15682;56.742;38.866;2022-07-11T05:36:47;13.9;;;3.5;;
28455;SDS011;15682;56.742;38.866;2022-07-11T05:38:48;10.9;;;3.4;;
28455;SDS011;15682;56.742;38.866;2022-07-11T05:40:49;18.2;;;3.9;;
28455;SDS011;15682;56.742;38.866;2022-07-11T05:42:49;17.5;;;3.7;;
28455;SDS011;15682;56.742;38.866;2022-07-11T05:44:50;17.0;;;3.6;;
28455;SDS011;15682;56.742;38.866;2022-07-11T05:46:51;19.3;;;4.3;;
28455;SDS011;15682;56.742;38.866;2022-07-11T05:48:51;21.1;;;4.0;;
28455;SDS011;15682;56.742;38.866;2022-07-11T05:50:52;24.3;;;4.5;;
28455;SDS011;15682;56.742;38.866;2022-07-11T05:52:53;28.7;;;4.7;;
28455;SDS011;15682;56.742;38.866;2022-07-11T05:54:53;30.1;;;4.6;;
28455;SDS011;15682;56.742;38.866;2022-07-11T05:56:54;29.6;;;4.7;;
28455;SDS011;15682;56.742;38.866;2022-07-11T05:58:55;22.8;;;4.3;;
28455;SDS011;15682;56.742;38.866;2022-07-11T06:00:57;38.6;;;5.0;;
28455;SDS011;15682;56.742;38.866;2022-07-11T06:02:56;28.6;;;3.8;;
28455;SDS011;15682;56.742;38.866;2022-07-11T06:04:57;22.7;;;3.9;;
28455;SDS011;15682;56.742;38.866;2022-07-11T06:06:57;24.3;;;4.4;;
28455;SDS011;15682;56.742;38.866;2022-07-11T06:08:58;22.5;;;4.1;;
28455;SDS011;15682;56.742;38.866;2022-07-11T06:10:59;24.9;;;3.9;;
28455;SDS011;15682;56.742;38.866;2022-07-11T06:12:59;19.8;;;3.8;;
28455;SDS011;15682;56.742;38.866;2022-07-11T06:15:00;12.1;;;3.1;;
28455;SDS011;15682;56.742;38.866;2022-07-11T06:17:01;13.5;;;3.2;;
28455;SDS011;15682;56.742;38.866;2022-07-11T06:19:01;16.6;;;3.0;;
28455;SDS011;15682;56.742;38.866;2022-07-11T06:21:02;7.9;;;2.7;;
28455;SDS011;15682;56.742;38.866;2022-07-11T06:23:02;10.3;;;2.9;;
28455;SDS011;15682;56.742;38.866;2022-07-11T06:25:04;10.7;;;2.9;;
28455;SDS011;15682;56.742;38.866;2022-07-11T06:27:04;7.1;;;2.9;;
28455;SDS011;15682;56.742;38.866;2022-07-11T06:29:05;12.4;;;3.0;;
28455;SDS011;15682;56.742;38.866;2022-07-11T06:31:05;9.1;;;2.8;;
28455;SDS011;15682;56.742;38.866;2022-07-11T06:33:06;7.4;;;3.0;;
28455;SDS011;15682;56.742;38.866;2022-07-11T06:35:07;14.1;;;3.2;;
28455;SDS011;15682;56.742;38.866;2022-07-11T06:37:07;9.7;;;3.1;;
28455;SDS011;15682;56.742;38.866;2022-07-11T06:39:08;11.9;;;3.1;;
28455;SDS011;15682;56.742;38.866;2022-07-11T06:41:09;10.0;;;2.8;;
28455;SDS011;15682;56.742;38.866;2022-07-11T06:43:09;11.0;;;3.1;;
28455;SDS011;15682;56.742;38.866;2022-07-11T06:45:10;10.6;;;3.1;;
28455;SDS011;15682;56.742;38.866;2022-07-11T06:47:11;9.1;;;2.9;;
28455;SDS011;15682;56.742;38.866;2022-07-11T06:49:11;12.6;;;3.5;;
28455;SDS011;15682;56.742;38.866;2022-07-11T06:51:12;8.8;;;3.1;;
28455;SDS011;15682;56.742;38.866;2022-07-11T06:53:13;13.0;;;3.3;;
28455;SDS011;15682;56.742;38.866;2022-07-11T06:55:14;13.0;;;2.8;;
28455;SDS011;15682;56.742;38.866;2022-07-11T06:57:14;15.1;;;3.2;;
28455;SDS011;15682;56.742;38.866;2022-07-11T06:59:15;7.7;;;3.1;;
28455;SDS011;15682;56.742;38.866;2022-07-11T07:01:15;10.5;;;3.6;;
28455;SDS011;15682;56.742;38.866;2022-07-11T07:03:16;9.1;;;4.1;;
28455;SDS011;15682;56.742;38.866;2022-07-11T07:05:17;10.4;;;3.9;;
28455;SDS011;15682;56.742;38.866;2022-07-11T07:07:18;14.9;;;3.5;;
28455;SDS011;15682;56.742;38.866;2022-07-11T07:09:18;16.6;;;3.9;;
28455;SDS011;15682;56.742;38.866;2022-07-11T07:11:19;12.9;;;3.2;;
28455;SDS011;15682;56.742;38.866;2022-07-11T07:13:20;13.0;;;3.4;;
28455;SDS011;15682;56.742;38.866;2022-07-11T07:15:20;13.6;;;3.1;;
28455;SDS011;15682;56.742;38.866;2022-07-11T07:17:21;11.4;;;3.3;;
28455;SDS011;15682;56.742;38.866;2022-07-11T07:19:22;13.1;;;3.2;;
28455;SDS011;15682;56.742;38.866;2022-07-11T07:21:22;9.2;;;3.0;;
28455;SDS011;15682;56.742;38.866;2022-07-11T07:23:23;14.3;;;2.8;;
28455;SDS011;15682;56.742;38.866;2022-07-11T07:25:24;6.4;;;2.6;;
28455;SDS011;15682;56.742;38.866;2022-07-11T07:27:24;11.2;;;2.9;;
28455;SDS011;15682;56.742;38.866;2022-07-11T07:29:25;9.4;;;2.8;;
28455;SDS011;15682;56.742;38.866;2022-07-11T07:31:26;8.6;;;3.1;;
28455;SDS011;15682;56.742;38.866;2022-07-11T07:33:27;7.0;;;2.8;;
28455;SDS011;15682;56.742;38.866;2022-07-11T07:35:28;13.5;;;3.0;;
28455;SDS011;15682;56.742;38.866;2022-07-11T07:37:28;18.9;;;3.2;;
28455;SDS011;15682;56.742;38.866;2022-07-11T07:39:29;17.2;;;3.4;;
28455;SDS011;15682;56.742;38.866;2022-07-11T07:41:29;11.3;;;3.1;;
28455;SDS011;15682;56.742;38.866;2022-07-11T07:43:30;10.7;;;2.8;;
28455;SDS011;15682;56.742;38.866;2022-07-11T07:45:31;10.1;;;3.3;;
28455;SDS011;15682;56.742;38.866;2022-07-11T07:47:31;18.9;;;3.1;;
28455;SDS011;15682;56.742;38.866;2022-07-11T07:49:32;17.3;;;3.2;;
28455;SDS011;15682;56.742;38.866;2022-07-11T07:51:33;9.8;;;3.0;;
28455;SDS011;15682;56.742;38.866;2022-07-11T07:53:33;7.9;;;2.9;;
28455;SDS011;15682;56.742;38.866;2022-07-11T07:55:34;8.9;;;2.9;;
28455;SDS011;15682;56.742;38.866;2022-07-11T07:57:35;21.0;;;3.3;;
28455;SDS011;15682;56.742;38.866;2022-07-11T07:59:35;10.8;;;2.9;;
28455;SDS011;15682;56.742;38.866;2022-07-11T08:01:36;13.8;;;3.2;;
28455;SDS011;15682;56.742;38.866;2022-07-11T08:03:37;15.4;;;3.6;;
28455;SDS011;15682;56.742;38.866;2022-07-11T08:05:37;21.7;;;4.1;;
28455;SDS011;15682;56.742;38.866;2022-07-11T08:07:38;17.2;;;3.8;;
28455;SDS011;15682;56.742;38.866;2022-07-11T08:09:39;16.2;;;3.9;;
28455;SDS011;15682;56.742;38.866;2022-07-11T08:11:39;10.6;;;3.1;;
28455;SDS011;15682;56.742;38.866;2022-07-11T08:13:40;13.6;;;3.0;;
28455;SDS011;15682;56.742;38.866;2022-07-11T08:15:41;12.6;;;3.3;;
28455;SDS011;15682;56.742;38.866;2022-07-11T08:17:41;12.5;;;2.9;;
28455;SDS011;15682;56.742;38.866;2022-07-11T08:19:42;14.5;;;3.2;;
28455;SDS011;15682;56.742;38.866;2022-07-11T08:21:42;10.3;;;3.1;;
28455;SDS011;15682;56.742;38.866;2022-07-11T08:23:43;9.1;;;3.0;;
28455;SDS011;15682;56.742;38.866;2022-07-11T08:25:44;8.2;;;3.1;;
28455;SDS011;15682;56.742;38.866;2022-07-11T08:27:44;12.0;;;3.0;;
28455;SDS011;15682;56.742;38.866;2022-07-11T08:29:45;11.8;;;2.9;;
28455;SDS011;15682;56.742;38.866;2022-07-11T08:31:46;12.3;;;3.4;;
28455;SDS011;15682;56.742;38.866;2022-07-11T08:33:46;12.3;;;2.8;;
28455;SDS011;15682;56.742;38.866;2022-07-11T08:35:47;13.9;;;3.0;;
28455;SDS011;15682;56.742;38.866;2022-07-11T08:37:48;13.2;;;3.3;;
28455;SDS011;15682;56.742;38.866;2022-07-11T08:39:48;12.9;;;3.2;;
28455;SDS011;15682;56.742;38.866;2022-07-11T08:41:49;12.4;;;3.4;;
28455;SDS011;15682;56.742;38.866;2022-07-11T08:43:50;16.7;;;3.1;;
28455;SDS011;15682;56.742;38.866;2022-07-11T08:45:50;20.6;;;3.5;;
28455;SDS011;15682;56.742;38.866;2022-07-11T08:47:51;13.2;;;3.1;;
28455;SDS011;15682;56.742;38.866;2022-07-11T08:49:52;18.6;;;3.4;;
28455;SDS011;15682;56.742;38.866;2022-07-11T08:51:52;11.3;;;3.0;;
28455;SDS011;15682;56.742;38.866;2022-07-11T08:53:53;16.6;;;3.1;;
28455;SDS011;15682;56.742;38.866;2022-07-11T08:55:53;14.6;;;3.4;;
28455;SDS011;15682;56.742;38.866;2022-07-11T08:57:54;19.9;;;3.3;;
28455;SDS011;15682;56.742;38.866;2022-07-11T08:59:55;13.8;;;3.0;;
28455;SDS011;15682;56.742;38.866;2022-07-11T09:01:55;16.2;;;3.6;;
28455;SDS011;15682;56.742;38.866;2022-07-11T09:03:56;17.1;;;3.5;;
28455;SDS011;15682;56.742;38.866;2022-07-11T09:05:57;12.2;;;3.6;;
28455;SDS011;15682;56.742;38.866;2022-07-11T09:07:58;16.7;;;3.7;;
28455;SDS011;15682;56.742;38.866;2022-07-11T09:09:58;14.1;;;3.2;;
28455;SDS011;15682;56.742;38.866;2022-07-11T09:11:58;11.0;;;3.2;;
28455;SDS011;15682;56.742;38.866;2022-07-11T09:13:59;13.5;;;3.4;;
28455;SDS011;15682;56.742;38.866;2022-07-11T09:16:00;12.6;;;3.4;;
28455;SDS011;15682;56.742;38.866;2022-07-11T09:18:01;14.9;;;3.0;;
28455;SDS011;15682;56.742;38.866;2022-07-11T09:20:01;9.0;;;3.1;;
28455;SDS011;15682;56.742;38.866;2022-07-11T09:22:03;20.3;;;3.7;;
28455;SDS011;15682;56.742;38.866;2022-07-11T09:24:03;12.0;;;3.1;;
28455;SDS011;15682;56.742;38.866;2022-07-11T09:26:04;10.5;;;3.2;;
28455;SDS011;15682;56.742;38.866;2022-07-11T09:28:04;11.3;;;2.9;;
28455;SDS011;15682;56.742;38.866;2022-07-11T09:30:14;17.9;;;3.3;;
28455;SDS011;15682;56.742;38.866;2022-07-11T09:32:05;17.6;;;3.3;;
28455;SDS011;15682;56.742;38.866;2022-07-11T09:34:06;13.0;;;2.9;;
28455;SDS011;15682;56.742;38.866;2022-07-11T09:36:06;11.8;;;2.7;;
28455;SDS011;15682;56.742;38.866;2022-07-11T09:38:08;9.3;;;2.9;;
28455;SDS011;15682;56.742;38.866;2022-07-11T09:40:11;16.6;;;3.2;;
28455;SDS011;15682;56.742;38.866;2022-07-11T09:42:08;17.8;;;3.4;;
28455;SDS011;15682;56.742;38.866;2022-07-11T09:44:10;11.5;;;2.8;;
28455;SDS011;15682;56.742;38.866;2022-07-11T09:46:09;15.5;;;2.9;;
28455;SDS011;15682;56.742;38.866;2022-07-11T09:48:11;19.2;;;2.8;;
28455;SDS011;15682;56.742;38.866;2022-07-11T09:50:11;17.5;;;3.5;;
28455;SDS011;15682;56.742;38.866;2022-07-11T09:52:12;23.6;;;3.5;;
28455;SDS011;15682;56.742;38.866;2022-07-11T09:54:12;15.6;;;3.2;;
28455;SDS011;15682;56.742;38.866;2022-07-11T09:56:13;12.8;;;2.5;;
28455;SDS011;15682;56.742;38.866;2022-07-11T09:58:14;15.6;;;3.1;;
28455;SDS011;15682;56.742;38.866;2022-07-11T10:00:14;16.8;;;3.1;;
28455;SDS011;15682;56.742;38.866;2022-07-11T10:02:15;19.7;;;3.3;;
28455;SDS011;15682;56.742;38.866;2022-07-11T10:04:15;15.6;;;3.2;;
28455;SDS011;15682;56.742;38.866;2022-07-11T10:06:16;21.6;;;3.3;;
28455;SDS011;15682;56.742;38.866;2022-07-11T10:08:17;23.2;;;2.9;;
28455;SDS011;15682;56.742;38.866;2022-07-11T10:10:17;21.3;;;3.1;;
28455;SDS011;15682;56.742;38.866;2022-07-11T10:12:18;11.1;;;2.9;;
28455;SDS011;15682;56.742;38.866;2022-07-11T10:14:18;13.7;;;3.2;;
28455;SDS011;15682;56.742;38.866;2022-07-11T10:16:24;17.5;;;3.8;;
28455;SDS011;15682;56.742;38.866;2022-07-11T10:18:25;20.6;;;4.3;;
28455;SDS011;15682;56.742;38.866;2022-07-11T10:20:22;23.8;;;4.2;;
28455;SDS011;15682;56.742;38.866;2022-07-11T10:22:23;18.7;;;3.2;;
28455;SDS011;15682;56.742;38.866;2022-07-11T10:24:25;30.6;;;4.1;;
28455;SDS011;15682;56.742;38.866;2022-07-11T10:26:24;22.7;;;3.2;;
28455;SDS011;15682;56.742;38.866;2022-07-11T10:28:25;20.0;;;3.2;;
28455;SDS011;15682;56.742;38.866;2022-07-11T10:32:24;28.4;;;3.5;;
28455;SDS011;15682;56.742;38.866;2022-07-11T10:34:27;16.1;;;3.0;;
28455;SDS011;15682;56.742;38.866;2022-07-11T10:36:26;20.4;;;3.3;;
28455;SDS011;15682;56.742;38.866;2022-07-11T10:38:26;13.5;;;3.1;;
28455;SDS011;15682;56.742;38.866;2022-07-11T10:42:37;10.8;;;2.6;;
28455;SDS011;15682;56.742;38.866;2022-07-11T10:44:45;15.0;;;3.2;;
28455;SDS011;15682;56.742;38.866;2022-07-11T10:46:29;14.8;;;2.6;;
28455;SDS011;15682;56.742;38.866;2022-07-11T10:48:30;18.6;;;3.2;;
28455;SDS011;15682;56.742;38.866;2022-07-11T10:50:31;11.2;;;2.5;;
28455;SDS011;15682;56.742;38.866;2022-07-11T10:52:31;13.3;;;2.8;;
28455;SDS011;15682;56.742;38.866;2022-07-11T10:54:35;17.2;;;2.9;;
28455;SDS011;15682;56.742;38.866;2022-07-11T10:56:45;11.4;;;2.6;;
28455;SDS011;15682;56.742;38.866;2022-07-11T10:58:33;16.8;;;3.0;;
28455;SDS011;15682;56.742;38.866;2022-07-11T11:00:33;12.7;;;3.0;;
28455;SDS011;15682;56.742;38.866;2022-07-11T11:02:58;13.0;;;2.8;;
28455;SDS011;15682;56.742;38.866;2022-07-11T11:08:40;13.7;;;3.0;;
28455;SDS011;15682;56.742;38.866;2022-07-11T11:10:46;12.2;;;2.9;;
28455;SDS011;15682;56.742;38.866;2022-07-11T11:14:38;25.1;;;2.8;;
28455;SDS011;15682;56.742;38.866;2022-07-11T11:16:39;17.5;;;2.7;;
28455;SDS011;15682;56.742;38.866;2022-07-11T11:18:41;42.2;;;4.1;;
28455;SDS011;15682;56.742;38.866;2022-07-11T11:20:40;12.6;;;2.7;;
28455;SDS011;15682;56.742;38.866;2022-07-11T11:22:41;10.1;;;2.6;;
28455;SDS011;15682;56.742;38.866;2022-07-11T11:24:42;15.5;;;2.8;;
28455;SDS011;15682;56.742;38.866;2022-07-11T11:26:46;17.7;;;2.8;;
28455;SDS011;15682;56.742;38.866;2022-07-11T11:30:51;20.0;;;2.9;;
28455;SDS011;15682;56.742;38.866;2022-07-11T11:32:44;21.2;;;3.3;;
28455;SDS011;15682;56.742;38.866;2022-07-11T11:34:45;20.8;;;2.9;;
28455;SDS011;15682;56.742;38.866;2022-07-11T11:36:51;16.8;;;2.7;;
28455;SDS011;15682;56.742;38.866;2022-07-11T11:38:46;13.9;;;3.1;;
28455;SDS011;15682;56.742;38.866;2022-07-11T11:40:47;17.1;;;3.3;;
28455;SDS011;15682;56.742;38.866;2022-07-11T11:42:47;13.3;;;2.8;;
28455;SDS011;15682;56.742;38.866;2022-07-11T11:44:49;15.4;;;3.1;;
28455;SDS011;15682;56.742;38.866;2022-07-11T11:46:50;20.9;;;3.6;;
28455;SDS011;15682;56.742;38.866;2022-07-11T11:48:49;18.0;;;2.7;;
28455;SDS011;15682;56.742;38.866;2022-07-11T11:50:50;20.5;;;3.0;;
28455;SDS011;15682;56.742;38.866;2022-07-11T11:52:50;14.3;;;2.9;;
28455;SDS011;15682;56.742;38.866;2022-07-11T11:54:52;19.9;;;2.7;;
28455;SDS011;15682;56.742;38.866;2022-07-11T11:56:52;9.8;;;2.7;;
28455;SDS011;15682;56.742;38.866;2022-07-11T11:58:54;10.8;;;2.7;;
28455;SDS011;15682;56.742;38.866;2022-07-11T12:00:54;15.1;;;3.0;;
28455;SDS011;15682;56.742;38.866;2022-07-11T12:02:54;15.3;;;3.1;;
28455;SDS011;15682;56.742;38.866;2022-07-11T12:04:55;8.5;;;2.7;;
28455;SDS011;15682;56.742;38.866;2022-07-11T12:06:55;16.2;;;3.0;;
28455;SDS011;15682;56.742;38.866;2022-07-11T12:08:58;23.0;;;3.3;;
28455;SDS011;15682;56.742;38.866;2022-07-11T12:10:57;16.3;;;3.2;;
28455;SDS011;15682;56.742;38.866;2022-07-11T12:12:57;15.9;;;2.8;;
28455;SDS011;15682;56.742;38.866;2022-07-11T12:14:58;12.9;;;3.1;;
28455;SDS011;15682;56.742;38.866;2022-07-11T12:16:59;22.1;;;3.2;;
28455;SDS011;15682;56.742;38.866;2022-07-11T12:19:00;14.2;;;2.9;;
28455;SDS011;15682;56.742;38.866;2022-07-11T12:21:08;15.5;;;3.1;;
28455;SDS011;15682;56.742;38.866;2022-07-11T12:23:01;14.2;;;2.8;;